Time;durP1;ratioP1;P1;durP2;ratioP2;P2;SDS_P1;SDS_P2;PMS_P1;PMS_P2;Temp;Humidity;BMP_temperature;BMP_pressure;BME280_temperature;BME280_humidity;BME280_pressure;Samples;Min_cycle;Max_cycle;Signal;HPM_P1;HPM_P2
2022/11/06 00:01:42;;;;;;;8.60;4.12;;;;;;;22.25;58.22;100578.69;143730;589;46006;-61
2022/11/06 00:04:21;;;;;;;9.75;3.12;;;;;;;22.25;57.70;100565.00;143731;611;46002;-61
2022/11/06 00:06:57;;;;;;;11.88;3.72;;;;;;;22.24;57.96;100568.03;143730;572;46008;-62
2022/11/06 00:09:37;;;;;;;9.45;3.20;;;;;;;22.10;57.98;100565.09;143728;658;47004;-62
2022/11/06 00:12:14;;;;;;;10.30;3.00;;;;;;;22.06;57.09;100562.09;143728;589;46926;-62
2022/11/06 00:14:58;;;;;;;;;;;;;;;;;;;;;
2022/11/06 00:17:37;;;;;;;7.03;3.40;;;;;;;22.11;56.83;100562.09;143727;566;46008;-61
2022/11/06 00:20:19;;;;;;;6.60;2.58;;;;;;;22.20;56.23;100575.16;143727;616;46004;-62
2022/11/06 00:22:55;;;;;;;6.30;2.80;;;;;;;22.23;55.48;100580.09;143730;572;46006;-61
2022/11/06 00:25:44;;;;;;;3.95;2.35;;;;;;;22.10;53.84;100582.34;143730;580;46006;-61
2022/11/06 00:28:24;;;;;;;5.65;2.50;;;;;;;22.04;53.52;100563.50;143726;569;46010;-62
2022/11/06 00:31:06;;;;;;;6.78;2.30;;;;;;;22.10;53.78;100552.25;143728;572;46004;-61
2022/11/06 00:33:43;;;;;;;4.68;2.20;;;;;;;22.06;52.10;100558.56;143728;616;46006;-62
2022/11/06 00:36:24;;;;;;;6.00;2.08;;;;;;;21.96;52.11;100554.75;143729;586;46004;-60
2022/11/06 00:39:02;;;;;;;5.22;2.10;;;;;;;21.95;52.85;100566.78;143726;567;46010;-61
2022/11/06 00:41:39;;;;;;;4.12;1.62;;;;;;;21.95;52.06;100560.53;143728;579;46009;-61
2022/11/06 00:44:14;;;;;;;5.65;1.50;;;;;;;21.94;51.71;100556.94;143732;567;46002;-62
2022/11/06 00:46:56;;;;;;;2.55;1.40;;;;;;;21.86;51.19;100570.38;143729;602;47002;-62
2022/11/06 00:49:37;;;;;;;5.00;1.10;;;;;;;21.88;50.69;100574.50;143727;645;46009;-61
2022/11/06 00:52:16;;;;;;;3.47;1.00;;;;;;;21.85;50.33;100566.00;143727;672;46004;-61
2022/11/06 00:54:55;;;;;;;3.95;1.10;;;;;;;21.91;49.88;100554.78;143728;601;47006;-61
2022/11/06 00:57:50;;;;;;;2.08;1.02;;;;;;;21.90;49.84;100561.34;143732;601;46002;-62
2022/11/06 01:00:32;;;;;;;2.62;0.90;;;;;;;21.88;48.73;100579.97;143727;578;46008;-62
2022/11/06 01:03:09;;;;;;;2.67;1.48;;;;;;;21.91;48.64;100575.84;143727;624;47004;-62
2022/11/06 01:05:48;;;;;;;3.30;1.15;;;;;;;22.01;49.01;100569.50;143729;657;46015;-61
2022/11/06 01:08:25;;;;;;;3.10;0.80;;;;;;;22.04;49.00;100571.69;143729;573;46004;-60
2022/11/06 01:11:08;;;;;;;3.25;1.00;;;;;;;22.07;49.26;100566.47;143728;668;46008;-61
2022/11/06 01:13:49;;;;;;;2.12;0.80;;;;;;;22.10;48.26;100562.34;143730;567;46008;-61
2022/11/06 01:16:28;;;;;;;4.72;0.93;;;;;;;22.09;47.82;100557.97;143728;588;46006;-62
2022/11/06 01:19:05;;;;;;;2.03;0.70;;;;;;;22.14;48.71;100552.50;143731;650;46004;-61
2022/11/06 01:21:43;;;;;;;2.97;0.70;;;;;;;22.12;47.02;100557.44;143728;646;46008;-62
2022/11/06 01:24:36;;;;;;;2.78;0.60;;;;;;;22.02;46.46;100561.03;143728;689;47004;-61
2022/11/06 01:27:16;;;;;;;0.85;0.50;;;;;;;22.08;46.60;100559.06;143729;576;46006;-61
2022/11/06 01:29:53;;;;;;;2.05;0.70;;;;;;;22.11;46.84;100564.00;143731;590;46004;-61
2022/11/06 01:32:32;;;;;;;0.60;0.37;;;;;;;22.15;46.14;100558.81;143727;698;46008;-61
2022/11/06 01:35:07;;;;;;;1.23;0.80;;;;;;;22.17;47.20;100551.94;143729;573;47002;-62
2022/11/06 01:37:44;;;;;;;0.93;0.60;;;;;;;22.18;47.41;100556.31;143730;588;46006;-62
2022/11/06 01:40:24;;;;;;;1.17;0.77;;;;;;;22.19;46.56;100555.22;143731;627;46011;-61
2022/11/06 01:43:04;;;;;;;3.42;1.00;;;;;;;22.16;46.69;100536.63;143729;664;46008;-62
2022/11/06 01:45:49;;;;;;;2.30;0.70;;;;;;;22.16;47.65;100554.94;143727;588;46008;-62
2022/11/06 01:48:27;;;;;;;5.05;1.05;;;;;;;22.16;46.49;100555.78;143729;603;46006;-60
2022/11/06 01:51:02;;;;;;;2.08;0.80;;;;;;;22.17;46.52;100570.25;143733;588;46010;-62
2022/11/06 01:53:39;;;;;;;1.55;0.62;;;;;;;22.14;46.56;100582.59;143728;631;46008;-62
2022/11/06 01:56:19;;;;;;;1.90;0.80;;;;;;;22.17;46.95;100595.72;143728;642;46004;-62
2022/11/06 01:58:59;;;;;;;2.03;0.68;;;;;;;22.08;45.94;100587.25;143728;573;46006;-60
2022/11/06 02:01:36;;;;;;;4.18;0.90;;;;;;;21.99;47.08;100593.59;143729;566;46010;-59
2022/11/06 02:04:27;;;;;;;3.67;1.45;;;;;;;21.99;46.84;100594.38;143728;688;46010;-61
2022/11/06 02:07:06;;;;;;;2.17;0.73;;;;;;;21.96;47.08;100595.78;143728;594;46004;-60
2022/11/06 02:09:43;;;;;;;2.17;0.80;;;;;;;21.90;47.01;100594.16;143729;616;46006;-61
2022/11/06 02:12:56;;;;;;;3.87;0.60;;;;;;;21.77;46.77;100609.25;143730;719;46002;-62
2022/11/06 02:15:50;;;;;;;3.12;0.70;;;;;;;21.78;46.99;100605.41;143732;695;46008;-62
2022/11/06 02:18:58;;;;;;;2.85;0.57;;;;;;;21.83;47.20;100620.13;143728;583;46004;-61
2022/11/06 02:22:15;;;;;;;2.83;0.95;;;;;;;21.85;47.43;100626.16;143727;637;46006;-61
2022/11/06 02:25:40;;;;;;;1.37;0.65;;;;;;;21.90;47.32;100635.16;143729;569;46011;-61
2022/11/06 02:28:52;;;;;;;2.55;0.73;;;;;;;21.97;47.47;100629.44;143727;708;46006;-61
2022/11/06 02:31:34;;;;;;;2.42;0.90;;;;;;;21.96;47.53;100630.53;143728;612;46006;-61
2022/11/06 02:34:25;;;;;;;2.78;0.77;;;;;;;22.01;47.71;100626.94;143729;568;46019;-60
2022/11/06 02:37:28;;;;;;;2.17;0.85;;;;;;;22.04;47.80;100623.66;143729;567;46011;-61
2022/11/06 02:40:05;;;;;;;;;;;;;;;22.04;47.17;100627.19;143759;981;45924;-60
2022/11/06 02:43:01;;;;;;;;;;;;;;;22.03;47.19;100622.81;143765;979;45005;-61
2022/11/06 02:45:42;;;;;;;2.22;0.80;;;;;;;22.01;47.30;100624.22;143759;580;45010;-61
2022/11/06 02:48:23;;;;;;;4.40;0.98;;;;;;;21.91;47.10;100622.31;143759;601;45005;-61
2022/11/06 02:51:05;;;;;;;2.05;0.70;;;;;;;21.59;47.49;100601.59;143758;661;45010;-62
2022/11/06 02:53:45;;;;;;;4.37;0.90;;;;;;;21.46;47.81;100605.69;143756;647;45013;-62
2022/11/06 02:56:27;;;;;;;2.90;1.00;;;;;;;21.38;48.29;100604.34;143757;663;45009;-60
2022/11/06 02:59:19;;;;;;;2.70;0.93;;;;;;;21.40;47.92;100606.78;143756;642;45008;-61
2022/11/06 03:02:12;;;;;;;4.22;0.90;;;;;;;21.34;47.79;100611.44;143757;634;45920;-62
2022/11/06 03:04:58;;;;;;;2.70;0.85;;;;;;;21.23;47.68;100607.88;143750;665;45926;-61
2022/11/06 03:08:08;;;;;;;2.40;0.90;;;;;;;21.19;47.95;100604.88;143750;584;47006;-62
2022/11/06 03:10:50;;;;;;;5.25;1.12;;;;;;;21.22;48.78;100591.78;143758;600;45008;-61
2022/11/06 03:13:59;;;;;;;2.70;1.55;;;;;;;21.28;48.52;100607.88;143757;613;45925;-61
2022/11/06 03:17:00;;;;;;;4.50;0.90;;;;;;;21.23;48.94;100618.81;143756;588;45928;-61
2022/11/06 03:20:06;;;;;;;3.17;0.85;;;;;;;21.42;49.23;100613.63;143756;669;45009;-61
2022/11/06 03:23:13;;;;;;;3.72;1.20;;;;;;;21.53;48.83;100619.91;143759;591;45013;-60
2022/11/06 03:26:17;;;;;;;3.20;0.95;;;;;;;21.62;48.01;100606.53;143756;604;45924;-60
2022/11/06 03:29:19;;;;;;;5.43;1.42;;;;;;;21.60;47.94;100604.06;143757;573;45012;-61
2022/11/06 03:32:10;;;;;;;3.35;0.80;;;;;;;21.42;48.45;100608.16;143756;572;45922;-60
2022/11/06 03:34:53;;;;;;;3.15;1.00;;;;;;;21.32;48.45;100610.88;143758;591;45007;-61
2022/11/06 03:37:43;;;;;;;5.62;1.35;;;;;;;21.33;48.37;100605.16;143755;590;45926;-61
2022/11/06 03:40:24;;;;;;;3.17;1.73;;;;;;;21.47;47.90;100607.34;143756;602;45007;-61
2022/11/06 03:43:02;;;;;;;6.43;1.45;;;;;;;21.56;48.07;100600.19;143755;597;46004;-61
2022/11/06 03:45:46;;;;;;;2.55;0.80;;;;;;;21.59;47.29;100593.37;143758;609;45010;-61
2022/11/06 03:48:49;;;;;;;3.37;1.00;;;;;;;21.63;47.24;100592.59;143755;570;46005;-60
2022/11/06 03:51:41;;;;;;;4.10;1.60;;;;;;;21.67;47.82;100594.78;143755;582;46006;-62
2022/11/06 03:55:00;;;;;;;3.20;1.20;;;;;;;21.75;46.90;100595.03;143756;611;45008;-60
2022/11/06 03:57:55;;;;;;;4.35;1.37;;;;;;;21.69;47.05;100607.06;143760;604;45015;-60
2022/11/06 04:00:33;;;;;;;4.47;1.35;;;;;;;21.73;47.13;100593.66;143756;605;45922;-61
2022/11/06 04:03:19;;;;;;;4.93;1.12;;;;;;;21.69;47.18;100592.59;143757;575;45011;-61
2022/11/06 04:06:31;;;;;;;3.25;1.37;;;;;;;21.44;47.82;100578.66;143757;586;45925;-61
2022/11/06 04:15:00;;;;;;;3.45;1.25;;;;;;;21.68;47.64;100578.06;143756;577;45012;-61
2022/11/06 04:17:40;;;;;;;3.83;1.75;;;;;;;21.69;47.56;100587.91;143755;573;45926;-61
2022/11/06 04:23:36;;;;;;;7.15;1.48;;;;;;;21.67;47.52;100592.03;143760;617;45004;-63
2022/11/06 04:26:37;;;;;;;4.07;1.30;;;;;;;21.46;47.76;100584.62;143756;583;45006;-61
2022/11/06 04:29:46;;;;;;;4.82;1.37;;;;;;;21.53;47.66;100587.13;143755;572;45006;-63
2022/11/06 04:32:47;;;;;;;3.65;1.35;;;;;;;21.61;47.40;100585.75;143757;584;46002;-61
2022/11/06 04:35:49;;;;;;;4.53;1.55;;;;;;;21.65;47.21;100595.03;143756;582;45012;-61
2022/11/06 04:39:06;;;;;;;3.22;1.30;;;;;;;21.69;47.52;100595.31;143746;603;46012;-62
2022/11/06 04:42:17;;;;;;;6.90;1.90;;;;;;;21.74;47.20;100606.22;143728;583;46007;-62
2022/11/06 04:44:56;;;;;;;6.03;1.40;;;;;;;21.83;47.63;100609.19;143729;568;46010;-62
2022/11/06 04:47:34;;;;;;;6.93;1.65;;;;;;;21.83;47.72;100610.03;143725;667;46010;-63
2022/11/06 04:50:12;;;;;;;4.60;1.70;;;;;;;21.69;47.62;100598.84;143725;658;46006;-63
2022/11/06 04:52:50;;;;;;;5.93;1.67;;;;;;;21.45;47.67;100598.59;143726;567;46008;-62
2022/11/06 04:55:32;;;;;;;5.82;1.65;;;;;;;21.41;48.12;100606.53;143728;598;46005;-62
2022/11/06 04:58:10;;;;;;;5.30;1.40;;;;;;;21.36;47.68;100601.84;143725;586;46010;-61
2022/11/06 05:00:50;;;;;;;4.68;1.40;;;;;;;21.45;47.33;100610.31;143726;572;46012;-62
2022/11/06 05:03:27;;;;;;;8.50;2.00;;;;;;;21.53;47.08;100595.31;143725;576;46009;-61
2022/11/06 05:06:05;;;;;;;6.43;1.70;;;;;;;21.57;46.94;100598.31;143728;684;46010;-62
2022/11/06 05:08:40;;;;;;;5.30;1.60;;;;;;;21.59;46.75;100604.31;143724;601;46012;-62
2022/11/06 05:11:17;;;;;;;3.78;1.48;;;;;;;21.65;46.12;100605.97;143724;582;46006;-61
2022/11/06 05:13:55;;;;;;;5.12;1.73;;;;;;;21.76;46.57;100604.88;143727;649;46015;-62
2022/11/06 05:16:32;;;;;;;3.83;1.60;;;;;;;21.78;46.23;100599.94;143727;606;46004;-62
2022/11/06 05:19:08;;;;;;;4.28;1.70;;;;;;;21.84;46.43;100608.09;143725;590;46008;-62
2022/11/06 05:24:39;;;;;;;4.20;1.60;;;;;;;21.89;46.55;100608.09;143725;676;46006;-62
2022/11/06 05:27:17;;;;;;;3.08;1.65;;;;;;;21.91;46.91;100614.91;143728;628;46004;-60
2022/11/06 05:29:56;;;;;;;4.78;1.67;;;;;;;21.94;46.76;100613.56;143726;651;46010;-62
2022/11/06 05:32:42;;;;;;;3.67;1.80;;;;;;;21.95;46.70;100623.41;143725;633;47004;-62
2022/11/06 05:35:20;;;;;;;4.30;1.92;;;;;;;21.95;46.81;100626.16;143727;569;46006;-62
2022/11/06 05:38:06;;;;;;;7.40;2.05;;;;;;;21.93;46.97;100623.66;143728;566;46000;-62
2022/11/06 05:40:44;;;;;;;6.03;2.35;;;;;;;21.98;47.17;100628.31;143727;683;46926;-62
2022/11/06 05:43:20;;;;;;;5.15;1.77;;;;;;;21.85;47.58;100642.56;143725;567;46004;-62
2022/11/06 05:45:57;;;;;;;4.43;1.73;;;;;;;21.86;47.56;100649.66;143728;572;46006;-62
2022/11/06 05:48:36;;;;;;;3.37;1.67;;;;;;;21.56;48.31;100657.59;143726;567;46010;-62
2022/11/06 05:51:13;;;;;;;9.48;3.10;;;;;;;21.56;48.66;100648.59;143728;578;46008;-62
2022/11/06 05:53:53;;;;;;;9.20;2.30;;;;;;;21.64;48.38;100650.78;143728;598;46008;-62
2022/11/06 05:56:36;;;;;;;7.82;2.35;;;;;;;21.74;48.56;100649.94;143725;601;46006;-62
2022/11/06 05:59:14;;;;;;;10.10;1.92;;;;;;;21.83;48.59;100652.94;143728;672;46002;-61
2022/11/06 06:01:52;;;;;;;8.43;2.55;;;;;;;21.75;48.57;100665.25;143726;701;46010;-62
2022/11/06 06:04:30;;;;;;;7.35;2.60;;;;;;;21.64;49.05;100670.75;143725;593;47004;-62
2022/11/06 06:07:07;;;;;;;10.48;2.40;;;;;;;21.59;49.51;100684.37;143727;577;46006;-62
2022/11/06 06:09:46;;;;;;;11.05;3.47;;;;;;;21.60;50.10;100682.47;143728;679;46002;-62
2022/11/06 06:12:22;;;;;;;9.43;3.00;;;;;;;21.68;50.00;100694.81;143728;628;46004;-62
2022/11/06 06:14:58;;;;;;;8.77;2.45;;;;;;;21.61;50.50;100692.34;143724;573;47004;-62
2022/11/06 06:17:37;;;;;;;5.55;2.03;;;;;;;21.59;49.96;100695.31;143725;583;47006;-61
2022/11/06 06:20:14;;;;;;;5.82;2.35;;;;;;;21.57;50.54;100700.22;143728;580;46002;-62
2022/11/06 06:23:00;;;;;;;5.60;2.30;;;;;;;21.59;50.55;100694.50;143726;613;46010;-62
2022/11/06 06:25:43;;;;;;;7.97;2.92;;;;;;;21.56;50.60;100711.44;143726;587;46004;-61
2022/11/06 06:28:20;;;;;;;7.75;2.28;;;;;;;21.54;50.59;100700.75;143726;581;46006;-62
2022/11/06 06:31:00;;;;;;;9.35;2.53;;;;;;;21.59;50.81;100703.50;143726;598;46010;-63
2022/11/06 06:33:40;;;;;;;13.38;2.40;;;;;;;21.61;50.05;100698.63;143725;590;46008;-62
2022/11/06 06:36:17;;;;;;;6.25;2.75;;;;;;;21.63;50.31;100701.06;143728;578;46002;-61
2022/11/06 06:38:56;;;;;;;9.80;2.53;;;;;;;21.55;50.31;100704.34;143728;583;46007;-62
2022/11/06 06:41:32;;;;;;;9.50;2.37;;;;;;;21.45;50.59;100722.34;143729;587;46006;-62
2022/11/06 06:44:11;;;;;;;10.23;2.33;;;;;;;21.50;50.68;100716.09;143725;646;46010;-63
2022/11/06 06:46:48;;;;;;;7.55;2.42;;;;;;;21.58;50.35;100721.00;143726;585;46005;-63
2022/11/06 06:49:27;;;;;;;11.43;2.35;;;;;;;21.58;51.11;100725.66;143725;679;46006;-63
2022/11/06 06:52:03;;;;;;;9.80;2.70;;;;;;;21.57;51.26;100730.28;143728;572;46006;-62
2022/11/06 06:54:43;;;;;;;10.40;2.78;;;;;;;21.56;51.28;100744.25;143725;574;46009;-62
2022/11/06 06:57:20;;;;;;;10.90;2.80;;;;;;;21.51;51.54;100753.25;143726;674;46004;-62
2022/11/06 06:59:59;;;;;;;8.88;3.65;;;;;;;21.56;51.68;100747.78;143726;572;46006;-61
2022/11/06 07:02:35;;;;;;;8.70;3.12;;;;;;;21.45;51.35;100766.06;143728;585;46010;-61
2022/11/06 07:05:15;;;;;;;9.82;2.85;;;;;;;21.46;50.86;100764.19;143726;744;46008;-61
2022/11/06 07:07:51;;;;;;;9.15;3.53;;;;;;;21.53;51.88;100758.44;143723;633;47004;-62
2022/11/06 07:10:29;;;;;;;10.85;2.97;;;;;;;21.56;51.27;100757.91;143725;610;46007;-62
2022/11/06 07:13:07;;;;;;;9.63;2.65;;;;;;;21.54;51.25;100766.34;143728;593;46010;-62
2022/11/06 07:15:45;;;;;;;16.45;5.00;;;;;;;21.61;51.13;100766.16;143726;583;46008;-62
2022/11/06 07:18:21;;;;;;;6.87;2.22;;;;;;;21.62;49.53;100756.84;143729;567;45021;-63
2022/11/06 07:20:58;;;;;;;9.95;2.58;;;;;;;21.71;50.07;100760.69;143727;572;46006;-62
2022/11/06 07:23:37;;;;;;;6.68;1.98;;;;;;;21.78;50.00;100755.78;143729;580;46004;-61
2022/11/06 07:26:14;;;;;;;5.60;2.25;;;;;;;21.65;49.93;100761.75;143724;590;46011;-62
2022/11/06 07:28:53;;;;;;;7.20;3.20;;;;;;;21.59;50.06;100760.91;143726;591;46004;-61
2022/11/06 07:31:29;;;;;;;7.82;2.95;;;;;;;21.65;49.51;100756.28;143728;576;46006;-60
2022/11/06 07:34:08;;;;;;;8.52;2.55;;;;;;;21.68;49.45;100754.94;143729;572;46006;-61
2022/11/06 07:36:43;;;;;;;7.60;2.60;;;;;;;21.65;49.07;100759.84;143728;601;46008;-60
2022/11/06 07:39:19;;;;;;;7.78;3.17;;;;;;;21.62;49.19;100763.13;143731;599;46004;-61
2022/11/06 07:41:58;;;;;;;9.55;3.62;;;;;;;21.69;49.73;100765.59;143732;668;47002;-60
2022/11/06 07:44:35;;;;;;;9.07;3.50;;;;;;;21.76;48.72;100759.84;143733;573;47000;-62
2022/11/06 07:47:13;;;;;;;12.57;6.15;;;;;;;21.67;48.54;100758.78;143733;620;46009;-61
2022/11/06 07:49:49;;;;;;;9.40;3.53;;;;;;;21.78;48.03;100747.56;143731;567;47004;-60
2022/11/06 07:52:27;;;;;;;8.52;2.92;;;;;;;21.87;47.59;100747.00;143730;591;46006;-63
2022/11/06 07:55:05;;;;;;;6.65;2.20;;;;;;;21.92;47.29;100749.75;143738;700;46010;-62
2022/11/06 07:57:43;;;;;;;4.97;2.28;;;;;;;21.91;46.80;100750.84;143734;602;46008;-60
2022/11/06 08:00:19;;;;;;;8.70;2.58;;;;;;;21.90;47.42;100746.47;143732;726;46004;-61
2022/11/06 08:03:11;;;;;;;7.57;2.20;;;;;;;21.85;46.96;100746.44;143733;597;46006;-62
2022/11/06 08:05:54;;;;;;;8.93;2.12;;;;;;;21.86;46.86;100746.19;143735;674;46002;-63
2022/11/06 08:08:32;;;;;;;9.07;2.85;;;;;;;21.88;46.69;100746.75;143734;601;46009;-62
2022/11/06 08:11:16;;;;;;;10.23;3.42;;;;;;;21.87;46.46;100747.84;143734;574;46002;-61
2022/11/06 08:13:53;;;;;;;6.97;2.90;;;;;;;21.69;47.11;100749.19;143733;569;46006;-63
2022/11/06 08:16:32;;;;;;;10.65;2.78;;;;;;;21.60;48.11;100759.84;143736;585;46004;-62
2022/11/06 08:19:11;;;;;;;10.30;2.95;;;;;;;21.62;47.81;100754.94;143733;595;46008;-62
2022/11/06 08:21:47;;;;;;;6.45;2.72;;;;;;;21.46;48.60;100762.25;143732;662;46008;-62
2022/11/06 08:24:24;;;;;;;8.13;2.55;;;;;;;21.33;49.04;100757.31;143732;600;46926;-61
2022/11/06 08:27:04;;;;;;;10.88;3.08;;;;;;;21.51;48.69;100762.25;143733;601;46010;-62
2022/11/06 08:29:43;;;;;;;9.70;3.67;;;;;;;21.62;49.02;100763.13;143732;573;46008;-62
2022/11/06 08:32:17;;;;;;;21.00;4.35;;;;;;;21.68;47.64;100774.06;143734;634;46004;-63
2022/11/06 08:34:53;;;;;;;11.20;4.22;;;;;;;21.74;48.57;100765.59;143733;664;46006;-62
2022/11/06 08:37:32;;;;;;;13.48;4.55;;;;;;;21.84;48.13;100767.53;143734;617;46002;-62
2022/11/06 08:40:09;;;;;;;13.38;6.68;;;;;;;21.95;47.50;100768.34;143724;600;46008;-62
2022/11/06 08:42:53;;;;;;;17.70;5.85;;;;;;;21.82;48.41;100769.72;143725;670;46004;-62
2022/11/06 08:45:31;;;;;;;12.55;4.82;;;;;;;21.80;48.00;100767.22;143725;748;46007;-62
2022/11/06 08:48:12;;;;;;;12.93;4.45;;;;;;;21.78;48.22;100780.38;143728;734;47002;-62
2022/11/06 08:50:49;;;;;;;8.70;3.35;;;;;;;21.84;47.89;100775.72;143725;580;46008;-62
2022/11/06 08:53:28;;;;;;;6.72;2.75;;;;;;;21.98;46.08;100764.22;143725;570;47004;-61
2022/11/06 08:56:05;;;;;;;10.20;2.30;;;;;;;22.09;45.96;100763.94;143724;579;47002;-61
2022/11/06 08:58:41;;;;;;;8.70;1.85;;;;;;;22.14;46.06;100752.19;143728;607;46002;-62
2022/11/06 09:01:20;;;;;;;6.30;1.98;;;;;;;22.30;44.72;100755.72;143725;573;46008;-61
2022/11/06 09:03:57;;;;;;;6.55;2.62;;;;;;;22.44;44.09;100745.03;143727;648;46004;-62
2022/11/06 09:06:36;;;;;;;5.95;2.20;;;;;;;22.63;43.41;100739.78;143725;572;46006;-62
2022/11/06 09:09:15;;;;;;;10.65;2.83;;;;;;;22.73;42.92;100738.09;143728;600;46002;-62
2022/11/06 09:11:51;;;;;;;8.38;2.78;;;;;;;22.86;42.35;100729.25;143727;576;46008;-62
2022/11/06 09:14:27;;;;;;;6.35;2.20;;;;;;;23.01;41.77;100729.19;143725;706;46004;-62
2022/11/06 09:17:05;;;;;;;11.88;2.62;;;;;;;23.17;41.66;100732.66;143726;586;46007;-62
2022/11/06 09:19:41;;;;;;;8.40;2.05;;;;;;;23.26;41.49;100741.13;143725;667;47010;-62
2022/11/06 09:22:17;;;;;;;9.63;3.17;;;;;;;27.37;34.22;100731.00;143724;630;46010;-61
2022/11/06 09:24:55;;;;;;;8.52;2.45;;;;;;;30.16;29.43;100732.34;143725;609;47004;-61
2022/11/06 09:27:33;;;;;;;9.38;2.75;;;;;;;31.36;27.50;100724.75;143727;570;46002;-63
2022/11/06 09:30:23;;;;;;;7.37;2.65;;;;;;;29.45;30.54;100728.91;143727;581;46006;-63
2022/11/06 09:33:04;;;;;;;11.35;2.85;;;;;;;28.27;32.21;100723.78;143725;595;47004;-63
2022/11/06 09:35:46;;;;;;;11.18;2.80;;;;;;;27.02;34.63;100725.19;143726;584;46004;-62
2022/11/06 09:38:26;;;;;;;8.65;2.22;;;;;;;26.99;34.32;100723.09;143727;596;46006;-62
2022/11/06 09:41:08;;;;;;;5.93;2.05;;;;;;;27.19;33.73;100727.31;143728;591;46004;-61
2022/11/06 09:44:36;;;;;;;11.35;3.25;;;;;;;29.05;31.74;100729.88;143727;630;46008;-61
2022/11/06 09:47:32;;;;;;;6.32;2.33;;;;;;;32.94;25.42;100736.78;143725;588;46004;-63
2022/11/06 09:50:16;;;;;;;8.93;2.37;;;;;;;35.00;22.96;100741.34;143724;590;46006;-63
2022/11/06 09:53:01;;;;;;;8.65;2.33;;;;;;;35.85;21.51;100727.78;143727;619;46002;-61
2022/11/06 09:55:47;;;;;;;11.90;2.67;;;;;;;35.24;22.54;100747.00;143725;685;46008;-62
2022/11/06 09:58:33;;;;;;;9.02;2.70;;;;;;;35.37;22.88;100731.69;143724;594;47004;-61
2022/11/06 10:01:22;;;;;;;9.73;2.95;;;;;;;34.91;22.97;100737.91;143726;663;46007;-61
2022/11/06 10:04:05;;;;;;;11.23;2.90;;;;;;;34.78;22.67;100730.84;143727;598;46004;-62
2022/11/06 10:06:53;;;;;;;14.05;3.53;;;;;;;36.13;22.14;100724.72;143726;657;46008;-62
2022/11/06 10:09:30;;;;;;;9.35;2.62;;;;;;;37.24;20.40;100735.09;143725;679;46004;-60
2022/11/06 10:12:22;;;;;;;12.73;2.97;;;;;;;34.96;23.04;100732.06;143725;609;46006;-61
2022/11/06 10:15:26;;;;;;;9.68;2.42;;;;;;;32.26;26.30;100721.53;143727;653;46011;-59
2022/11/06 10:18:49;;;;;;;11.02;2.90;;;;;;;30.69;29.69;100724.59;143726;579;46008;-61
2022/11/06 10:22:00;;;;;;;9.73;3.85;;;;;;;31.74;27.00;100717.41;143726;711;46004;-61
2022/11/06 10:25:22;;;;;;;13.38;2.78;;;;;;;29.45;31.12;100715.91;143726;570;46006;-59
2022/11/06 10:28:22;;;;;;;9.77;2.47;;;;;;;28.29;33.01;100704.16;143728;623;46002;-61
2022/11/06 10:31:28;;;;;;;11.00;2.72;;;;;;;26.51;36.08;100694.03;143726;669;46009;-61
2022/11/06 10:34:20;;;;;;;10.95;2.45;;;;;;;25.76;37.59;100699.56;143726;636;46008;-61
2022/11/06 10:37:12;;;;;;;12.80;3.25;;;;;;;25.28;38.52;100704.16;143727;628;46006;-61
2022/11/06 10:40:26;;;;;;;11.65;3.05;;;;;;;24.95;40.19;100698.59;143726;673;47000;-62
2022/11/06 10:47:00;;;;;;;9.45;3.20;;;;;;;25.58;38.94;100698.50;224219;57;46928;-62
2022/11/06 10:53:40;;;;;;;12.32;4.05;;;;;;;24.44;40.85;100688.25;143728;611;46006;-62
2022/11/06 10:56:51;;;;;;;10.13;3.35;;;;;;;24.30;41.12;100685.38;143724;573;46010;-61
2022/11/06 10:59:30;;;;;;;13.70;4.53;;;;;;;24.35;41.23;100688.06;143726;696;46004;-61
2022/11/06 11:02:07;;;;;;;11.68;3.87;;;;;;;24.43;40.60;100684.69;143727;653;47002;-61
2022/11/06 11:04:51;;;;;;;15.18;4.10;;;;;;;24.20;40.93;100695.38;143728;635;46002;-61
2022/11/06 11:07:32;;;;;;;16.55;3.83;;;;;;;24.20;41.28;100686.31;143726;665;46010;-60
2022/11/06 11:10:32;;;;;;;13.23;4.47;;;;;;;24.00;42.07;100679.12;143725;594;47004;-60
2022/11/06 11:13:21;;;;;;;12.15;4.28;;;;;;;24.09;41.58;100682.91;143729;623;46006;-60
2022/11/06 11:16:00;;;;;;;16.00;5.28;;;;;;;24.04;41.61;100689.22;143728;589;46004;-60
2022/11/06 11:18:35;;;;;;;12.50;4.15;;;;;;;24.03;41.68;100695.03;143725;572;47004;-61
2022/11/06 11:21:37;;;;;;;12.13;4.18;;;;;;;24.04;41.86;100691.97;143727;576;46004;-63
2022/11/06 11:24:18;;;;;;;11.43;3.45;;;;;;;23.99;42.63;100689.31;143727;586;46006;-62
2022/11/06 11:26:57;;;;;;;17.92;4.12;;;;;;;23.75;44.07;100686.47;143728;593;46004;-61
2022/11/06 11:29:43;;;;;;;13.10;3.58;;;;;;;23.49;45.23;100680.38;143726;616;46010;-61
2022/11/06 11:32:25;;;;;;;10.63;3.65;;;;;;;23.45;45.29;100686.47;143724;644;47004;-61
2022/11/06 11:35:04;;;;;;;14.23;3.53;;;;;;;23.40;45.44;100689.25;143725;597;46006;-61
2022/11/06 11:37:41;;;;;;;10.30;2.90;;;;;;;23.16;46.46;100686.38;143728;582;46004;-61
2022/11/06 11:40:40;;;;;;;13.85;4.72;;;;;;;23.27;45.68;100677.00;143724;591;46010;-60
2022/11/06 11:43:31;;;;;;;16.77;4.68;;;;;;;23.38;43.85;100683.22;143726;602;47004;-61
2022/11/06 11:46:21;;;;;;;12.55;4.10;;;;;;;23.41;43.48;100671.69;143728;590;46007;-61
2022/11/06 11:48:56;;;;;;;12.60;3.65;;;;;;;23.39;43.58;100676.63;143728;629;46004;-62
2022/11/06 11:51:46;;;;;;;13.95;4.53;;;;;;;23.45;43.07;100670.03;143728;598;46004;-61
2022/11/06 11:54:29;;;;;;;14.98;4.30;;;;;;;23.45;43.09;100674.66;143725;569;47004;-61
2022/11/06 11:57:36;;;;;;;15.48;3.47;;;;;;;23.40;42.72;100667.31;143723;579;47002;-61
2022/11/06 12:00:25;;;;;;;13.67;3.67;;;;;;;23.53;42.88;100660.34;143728;600;46004;-62
2022/11/06 12:03:10;;;;;;;15.88;4.47;;;;;;;23.56;42.49;100670.72;143724;621;46010;-61
2022/11/06 12:05:50;;;;;;;12.80;4.18;;;;;;;23.65;42.17;100670.13;143727;572;46004;-60
2022/11/06 12:08:29;;;;;;;13.88;3.28;;;;;;;23.75;42.07;100667.28;143727;607;46007;-61
2022/11/06 12:11:08;;;;;;;13.18;4.65;;;;;;;23.85;42.29;100661.69;143728;622;46004;-61
2022/11/06 12:14:03;;;;;;;15.98;3.67;;;;;;;23.69;42.72;100669.25;143726;602;46010;-62
2022/11/06 12:16:39;;;;;;;15.18;4.62;;;;;;;23.26;44.52;100667.13;143725;634;47005;-62
2022/11/06 12:19:17;;;;;;;19.40;3.90;;;;;;;23.05;44.37;100666.44;143729;573;46006;-62
2022/11/06 12:21:56;;;;;;;16.30;3.65;;;;;;;22.89;45.23;100667.66;143728;621;46011;-60
2022/11/06 12:24:42;;;;;;;18.65;4.03;;;;;;;23.14;45.18;100667.47;143728;600;46004;-61
2022/11/06 12:27:32;;;;;;;14.45;3.47;;;;;;;23.08;44.97;100657.66;143727;582;47004;-62
2022/11/06 12:30:24;;;;;;;8.13;3.08;;;;;;;23.04;43.59;100658.50;143726;589;47004;-61
2022/11/06 12:33:24;;;;;;;9.57;2.42;;;;;;;23.12;40.54;100655.97;143730;598;46002;-62
2022/11/06 12:36:13;;;;;;;6.78;2.12;;;;;;;23.08;39.96;100652.19;143730;572;46008;-62
2022/11/06 12:38:57;;;;;;;4.45;2.40;;;;;;;23.12;40.56;100652.41;143728;573;46004;-61
2022/11/06 12:41:48;;;;;;;9.02;2.65;;;;;;;23.02;41.04;100642.34;143729;568;46006;-60
2022/11/06 12:44:24;;;;;;;9.35;2.42;;;;;;;22.94;41.73;100653.94;143728;616;46011;-61
2022/11/06 12:47:36;;;;;;;4.03;1.85;;;;;;;22.75;42.16;100651.00;143730;666;46008;-63
2022/11/06 12:50:27;;;;;;;7.37;1.65;;;;;;;22.56;42.65;100652.50;143729;569;46008;-61
2022/11/06 12:53:19;;;;;;;5.60;1.90;;;;;;;22.39;42.54;100652.78;143729;579;46000;-60
2022/11/06 12:56:26;;;;;;;6.82;1.95;;;;;;;22.24;43.39;100656.38;143730;620;46002;-61
2022/11/06 12:59:38;;;;;;;4.80;1.98;;;;;;;22.21;44.69;100665.19;143726;595;46010;-62
2022/11/06 13:02:49;;;;;;;7.07;2.22;;;;;;;22.16;46.59;100670.66;143727;615;46008;-62
2022/11/06 13:05:43;;;;;;;5.95;1.70;;;;;;;21.99;46.45;100676.44;143727;593;46002;-61